SCFA

Details ICAO SCFA (ANF)
Name CERRO MORENO INTL
Region Chile
Timezone America/Santiago (UTC-4.0)
Plans Departing 94
Arriving 65
Stats Elevation 455 ft / 139 m (AMSL)
Location -23.444477° -70.445100°
Runways 1
Magnetic Variation 3.569° W
Sunrise 2018-06-18 11:23:28 UTC / 2018-06-18 07:23:28 Local
Sunset 2018-06-18 22:04:57 UTC / 2018-06-18 18:04:57 Local
Advertisement - Login to hide

Runways

ID Width Length Bearing (true) Bearing (mag) Surface Threshold Offset Overrun Length
01 164 ft / 50 m 8,567 ft / 2,611 m 6.86° 10.43° Asphalt 0 ft / 0 m 50 ft / 15 m
19 164 ft / 50 m 8,567 ft / 2,611 m 186.86° 190.43° Asphalt 0 ft / 0 m 155 ft / 47 m

Map

Weather


0- 5 10 15 20 25 30 35+ Temperature / ° C

Clouds and Precipitation
Forecast for 2018-06-19 00:00 UTC. Updated 2 hours ago

Ground ~20,000 ft ~40,000 ft Winds

METAR

SCFA 182300Z 20007KT 9999 FEW014 12/08 Q1016 NOSIG

TAF

TAF SCFA 181030Z 1812/1912 19004KT 9999 BKN013 TX16/1817Z TN11/1906Z BECMG 1816/1818 22008KT SCT013 BECMG 1820/1822 BKN010 BECMG 1822/1900 19004KT BECMG 1904/1906 03004KT OVC008

Frequencies

Ground 121.90 MHz GND
Approach 119.30 MHz ANTOFAGASTA APP
Tower 118.10 MHz ANTOFAGASTA TWR
Approach 120.90 MHz ANTOFAGASTA APP
Warning: Do not use this data for real-world aviation or navigation. No guarantee of current accuracy is given.